Time;durP1;ratioP1;P1;durP2;ratioP2;P2;SDS_P1;SDS_P2;PMS_P1;PMS_P2;Temp;Humidity;BMP_temperature;BMP_pressure;BME280_temperature;BME280_humidity;BME280_pressure;Samples;Min_cycle;Max_cycle;Signal;HPM_P1;HPM_P2
2021/07/11 00:01:42;;;;;;;;;;;;;;;15.30;73.38;99737.02;532944;1087;101908;-65
2021/07/11 00:11:47;;;;;;;;;;;;;;;15.36;74.04;99729.41;524621;1088;102742;-66
2021/07/11 00:21:52;;;;;;;;;;;;;;;15.39;73.90;99730.97;530148;1087;102946;-66
2021/07/11 00:31:56;;;;;;;;;;;;;;;15.46;73.89;99733.95;532953;1089;102316;-66
2021/07/11 00:42:01;;;;;;;;;;;;;;;15.39;73.53;99739.73;532270;1090;103729;-67
2021/07/11 00:52:06;;;;;;;;;;;;;;;15.30;73.56;99731.72;532955;1089;102210;-66
2021/07/11 01:02:14;;;;;;;;;;;;;;;15.12;73.88;99740.17;532938;1089;102197;-66
2021/07/11 01:12:21;;;;;;;;;;;;;;;14.91;73.84;99743.61;532299;1089;103126;-66
2021/07/11 01:22:29;;;;;;;;;;;;;;;14.66;74.04;99753.45;532912;1088;102127;-66
2021/07/11 01:32:35;;;;;;;;;;;;;;;14.56;74.41;99753.32;532921;1087;101986;-67
2021/07/11 01:42:40;;;;;;;;;;;;;;;14.51;75.19;99749.36;530674;1090;102796;-66
2021/07/11 01:52:45;;;;;;;;;;;;;;;14.66;75.07;99748.17;532950;1089;102813;-65
2021/07/11 02:02:51;;;;;;;;;;;;;;;14.79;74.46;99752.52;532115;1088;102408;-65
2021/07/11 02:12:58;;;;;;;;;;;;;;;14.87;75.02;99760.66;532955;1090;103688;-68
2021/07/11 02:23:04;;;;;;;;;;;;;;;14.88;75.12;99756.22;530001;1088;103169;-68
2021/07/11 02:33:12;;;;;;;;;;;;;;;14.99;75.05;99750.92;527518;1088;102631;-68
2021/07/11 02:43:17;;;;;;;;;;;;;;;15.10;75.02;99745.61;530042;1090;102817;-67
2021/07/11 02:53:23;;;;;;;;;;;;;;;15.20;74.83;99756.27;526945;1089;103708;-67
2021/07/11 03:03:28;;;;;;;;;;;;;;;15.39;74.61;99757.43;532224;1089;102080;-68
2021/07/11 03:13:34;;;;;;;;;;;;;;;17.70;74.29;99755.38;532930;1089;102515;-68
2021/07/11 03:23:39;;;;;;;;;;;;;;;20.65;68.82;99759.83;532932;1088;102229;-68
2021/07/11 03:33:47;;;;;;;;;;;;;;;19.80;65.18;99767.47;529560;1089;102849;-68
2021/07/11 03:43:53;;;;;;;;;;;;;;;18.65;66.20;99775.05;532971;1090;102336;-68
2021/07/11 03:54:03;;;;;;;;;;;;;;;18.11;66.71;99779.13;532253;1089;103285;-68
2021/07/11 04:04:09;;;;;;;;;;;;;;;19.15;68.55;99787.15;531159;1089;102578;-69
2021/07/11 04:14:16;;;;;;;;;;;;;;;28.11;59.33;99791.52;532909;1088;102325;-68
2021/07/11 04:24:22;;;;;;;;;;;;;;;33.71;49.32;99782.76;532315;1089;102907;-68
2021/07/11 04:34:27;;;;;;;;;;;;;;;37.14;42.37;99784.83;532958;1089;101933;-69
2021/07/11 04:44:32;;;;;;;;;;;;;;;39.31;36.77;99787.28;530038;1088;103758;-67
2021/07/11 04:54:37;;;;;;;;;;;;;;;41.84;33.35;99785.25;532216;1087;101931;-70
2021/07/11 05:04:42;;;;;;;;;;;;;;;44.54;29.20;99778.86;523482;1089;103114;-68
2021/07/11 05:14:48;;;;;;;;;;;;;;;45.05;26.07;99782.03;532928;1089;102175;-68
2021/07/11 05:24:52;;;;;;;;;;;;;;;46.75;23.71;99795.75;532947;1088;102433;-69
2021/07/11 05:34:57;;;;;;;;;;;;;;;47.46;21.89;99790.41;532985;1089;102623;-69
2021/07/11 05:45:02;;;;;;;;;;;;;;;46.73;21.50;99765.56;532233;1089;103298;-69
2021/07/11 05:55:08;;;;;;;;;;;;;;;45.56;20.06;99762.88;532921;1087;103557;-69
2021/07/11 06:05:13;;;;;;;;;;;;;;;47.40;19.43;99762.84;532961;1089;102565;-69
2021/07/11 06:15:18;;;;;;;;;;;;;;;48.17;18.43;99757.80;532257;1088;102930;-69
2021/07/11 06:25:22;;;;;;;;;;;;;;;48.46;18.11;99764.28;533018;1089;101908;-70
2021/07/11 06:35:27;;;;;;;;;;;;;;;48.47;17.29;99751.98;530389;1089;101346;-68
2021/07/11 06:45:32;;;;;;;;;;;;;;;48.98;16.65;99761.78;526488;1089;102827;-68
2021/07/11 06:55:37;;;;;;;;;;;;;;;49.21;15.99;99767.63;532915;1087;101674;-68
2021/07/11 07:05:43;;;;;;;;;;;;;;;51.18;15.37;99755.33;532910;1090;102014;-69
2021/07/11 07:15:48;;;;;;;;;;;;;;;51.33;14.17;99757.19;532851;1089;102802;-69
2021/07/11 07:25:53;;;;;;;;;;;;;;;51.22;14.39;99750.59;529187;1090;102428;-69
2021/07/11 07:35:58;;;;;;;;;;;;;;;51.24;14.13;99732.28;525411;1090;102525;-69
2021/07/11 07:57:29;;;;;;;;;;;;;;;44.82;15.86;99731.53;524040;1089;102798;-68
2021/07/11 08:07:35;;;;;;;;;;;;;;;38.28;20.28;99728.31;532916;1087;102166;-69
2021/07/11 08:17:40;;;;;;;;;;;;;;;33.25;25.55;99739.27;532925;1089;103090;-67
2021/07/11 08:27:45;;;;;;;;;;;;;;;31.06;28.60;99745.53;532218;1088;102551;-68
2021/07/11 08:37:50;;;;;;;;;;;;;;;29.92;29.88;99737.64;532701;1087;101878;-68
2021/07/11 08:47:55;;;;;;;;;;;;;;;29.59;31.46;99744.17;532266;1088;103300;-67
2021/07/11 08:58:00;;;;;;;;;;;;;;;28.95;33.31;99729.58;532892;1088;103575;-67
2021/07/11 09:08:06;;;;;;;;;;;;;;;29.62;32.54;99738.31;528697;1088;101963;-67
2021/07/11 09:18:11;;;;;;;;;;;;;;;29.22;33.20;99729.44;532299;1089;102938;-67
2021/07/11 09:28:18;;;;;;;;;;;;;;;29.41;33.33;99724.08;532954;1088;102395;-68
2021/07/11 09:38:29;;;;;;;;;;;;;;;29.19;33.48;99724.44;532967;1089;101309;-68
2021/07/11 09:48:36;;;;;;;;;;;;;;;28.74;34.33;99719.06;532118;1089;103303;-67
2021/07/11 09:58:40;;;;;;;;;;;;;;;28.34;34.81;99720.05;533001;1089;151228;-67
2021/07/11 10:08:45;;;;;;;;;;;;;;;27.60;35.82;99723.67;532901;1088;102626;-67
2021/07/11 10:18:55;;;;;;;;;;;;;;;27.89;36.36;99708.11;532851;1090;101455;-67
2021/07/11 10:29:10;;;;;;;;;;;;;;;27.72;37.06;99693.38;532803;1088;102457;-67
2021/07/11 10:39:15;;;;;;;;;;;;;;;27.59;37.01;99694.20;529267;1087;103148;-67
2021/07/11 10:49:22;;;;;;;;;;;;;;;27.26;37.44;99699.38;532943;1090;102795;-68
2021/07/11 10:59:31;;;;;;;;;;;;;;;26.75;38.08;99683.69;532849;1089;102339;-67
2021/07/11 11:09:39;;;;;;;;;;;;;;;26.57;38.96;99680.52;532255;1088;102659;-67
2021/07/11 11:19:46;;;;;;;;;;;;;;;26.52;38.87;99690.23;532895;1088;102021;-68
2021/07/11 11:29:51;;;;;;;;;;;;;;;26.90;39.52;99686.25;523164;1089;10098727;-67
2021/07/11 11:40:01;;;;;;;;;;;;;;;26.88;39.44;99678.36;532876;1089;103557;-67
2021/07/11 11:50:17;;;;;;;;;;;;;;;27.17;39.08;99664.72;532804;1090;102740;-67
2021/07/11 12:00:23;;;;;;;;;;;;;;;27.24;39.11;99657.48;532116;1089;102735;-66
2021/07/11 12:10:28;;;;;;;;;;;;;;;27.00;39.36;99648.97;532740;1089;103229;-67
2021/07/11 12:20:34;;;;;;;;;;;;;;;26.86;39.14;99661.55;532032;1089;102165;-67
2021/07/11 12:30:41;;;;;;;;;;;;;;;26.70;39.12;99655.52;531760;1088;102051;-67
2021/07/11 12:40:56;;;;;;;;;;;;;;;26.52;39.74;99656.08;532798;1089;103092;-68
2021/07/11 12:51:11;;;;;;;;;;;;;;;26.65;40.33;99660.66;532088;1088;102612;-65
2021/07/11 13:01:17;;;;;;;;;;;;;;;27.14;40.38;99649.81;532826;1089;102806;-65
2021/07/11 13:11:22;;;;;;;;;;;;;;;27.24;40.06;99644.85;532782;1089;102716;-69
2021/07/11 13:21:27;;;;;;;;;;;;;;;27.55;39.95;99647.98;532046;1089;102410;-69
2021/07/11 13:31:33;;;;;;;;;;;;;;;27.76;39.67;99646.05;532748;1088;103232;-68
2021/07/11 13:41:47;;;;;;;;;;;;;;;27.70;39.66;99647.73;532810;1088;102578;-69
2021/07/11 13:51:52;;;;;;;;;;;;;;;27.73;39.83;99635.70;532748;1088;102614;-69
2021/07/11 14:01:57;;;;;;;;;;;;;;;28.08;39.91;99633.54;532755;1088;103008;-68
2021/07/11 14:12:03;;;;;;;;;;;;;;;28.23;39.09;99636.02;532166;1089;102711;-68
2021/07/11 14:22:09;;;;;;;;;;;;;;;28.15;39.31;99630.81;532746;1088;102058;-68
2021/07/11 14:32:14;;;;;;;;;;;;;;;28.13;39.38;99615.87;532822;1088;102668;-69
2021/07/11 14:42:19;;;;;;;;;;;;;;;27.95;39.74;99599.33;528465;1088;103257;-68
2021/07/11 14:52:23;;;;;;;;;;;;;;;27.89;39.78;99600.19;532841;1089;102008;-68
2021/07/11 15:02:28;;;;;;;;;;;;;;;27.93;39.68;99589.78;529621;1088;102452;-67
2021/07/11 15:12:33;;;;;;;;;;;;;;;27.52;40.12;99572.84;513680;1088;102326;-68
2021/07/11 15:22:38;;;;;;;;;;;;;;;27.88;40.27;99566.16;514512;1088;103392;-68
2021/07/11 15:32:44;;;;;;;;;;;;;;;27.44;40.59;99559.61;525312;1089;102602;-68
2021/07/11 15:42:48;;;;;;;;;;;;;;;27.30;41.13;99558.80;532819;1087;102897;-68
2021/07/11 15:52:53;;;;;;;;;;;;;;;27.12;41.12;99541.39;532778;1089;102184;-69
2021/07/11 16:03:00;;;;;;;;;;;;;;;27.09;41.59;99531.03;532087;1089;102538;-69
2021/07/11 16:13:05;;;;;;;;;;;;;;;26.98;42.06;99529.81;532743;1089;102988;-69
2021/07/11 16:23:10;;;;;;;;;;;;;;;26.62;42.91;99521.06;532774;1088;102019;-68
2021/07/11 16:33:15;;;;;;;;;;;;;;;26.24;43.49;99511.67;532092;1087;102507;-68
2021/07/11 16:43:19;;;;;;;;;;;;;;;25.90;44.28;99513.41;532745;1088;102849;-68
2021/07/11 16:53:24;;;;;;;;;;;;;;;25.53;44.79;99499.39;532842;1087;102742;-68
2021/07/11 17:03:30;;;;;;;;;;;;;;;25.35;45.63;99506.09;532189;1090;102004;-68
2021/07/11 17:13:45;;;;;;;;;;;;;;;25.25;45.77;99508.30;532818;1090;102258;-68
2021/07/11 17:23:52;;;;;;;;;;;;;;;25.21;46.35;99529.36;532182;1088;101729;-66
2021/07/11 17:33:57;;;;;;;;;;;;;;;25.22;46.60;99543.60;532804;1090;101957;-67
2021/07/11 17:44:07;;;;;;;;;;;;;;;25.13;46.57;99524.13;532715;1089;102269;-68
2021/07/11 17:54:12;;;;;;;;;;;;;;;24.95;47.27;99536.20;532182;1090;102125;-68
2021/07/11 18:04:18;;;;;;;;;;;;;;;24.80;47.34;99581.06;532837;1088;102263;-69
2021/07/11 18:14:22;;;;;;;;;;;;;;;24.63;48.07;99560.64;530217;1088;102020;-68
2021/07/11 18:24:27;;;;;;;;;;;;;;;24.59;48.18;99564.74;532014;1089;102119;-69
2021/07/11 18:34:34;;;;;;;;;;;;;;;24.34;49.28;99575.84;532540;1089;102836;-68
2021/07/11 18:44:39;;;;;;;;;;;;;;;24.16;49.58;99554.80;532882;1088;102062;-69
2021/07/11 18:54:44;;;;;;;;;;;;;;;23.97;50.20;99548.14;532191;1089;102354;-68
2021/07/11 19:04:49;;;;;;;;;;;;;;;23.72;50.87;99545.77;532776;1089;102108;-68
2021/07/11 19:14:54;;;;;;;;;;;;;;;23.55;51.17;99552.32;532025;1089;102318;-67
2021/07/11 19:24:59;;;;;;;;;;;;;;;23.16;52.28;99556.86;532677;1089;102980;-69
2021/07/11 19:35:04;;;;;;;;;;;;;;;22.86;53.03;99567.51;532747;1089;102985;-66
2021/07/11 19:45:10;;;;;;;;;;;;;;;22.71;53.72;99554.88;532087;1087;102527;-68
2021/07/11 19:55:16;;;;;;;;;;;;;;;22.56;54.26;99570.87;532758;1089;101989;-69
2021/07/11 20:05:21;;;;;;;;;;;;;;;22.49;54.80;99575.28;532755;1088;102229;-68
2021/07/11 20:15:26;;;;;;;;;;;;;;;22.36;55.30;99560.61;530495;1089;102050;-70
2021/07/11 20:25:31;;;;;;;;;;;;;;;22.20;55.85;99574.06;532807;1089;102133;-68
2021/07/11 20:35:36;;;;;;;;;;;;;;;22.09;56.67;99581.45;532767;1088;103259;-67
2021/07/11 20:45:41;;;;;;;;;;;;;;;22.07;56.84;99591.49;532126;1089;102500;-68
2021/07/11 20:55:46;;;;;;;;;;;;;;;22.05;57.99;99584.67;532779;1088;102449;-67
2021/07/11 21:05:52;;;;;;;;;;;;;;;21.78;56.65;99582.27;532087;1089;103063;-68
2021/07/11 21:15:57;;;;;;;;;;;;;;;21.34;57.63;99559.44;532636;1089;102238;-68
2021/07/11 21:26:02;;;;;;;;;;;;;;;20.99;59.12;99583.67;532685;1089;102434;-68
2021/07/11 21:36:07;;;;;;;;;;;;;;;20.22;61.57;99507.38;532078;1088;102591;-67
2021/07/11 21:46:12;;;;;;;;;;;;;;;19.73;65.18;99446.75;532768;1090;102004;-67
2021/07/11 21:56:17;;;;;;;;;;;;;;;19.56;65.91;99384.61;532703;1088;103216;-68
2021/07/11 22:06:22;;;;;;;;;;;;;;;19.52;68.88;99421.38;532161;1088;103012;-68
2021/07/11 22:16:27;;;;;;;;;;;;;;;19.44;68.40;99502.06;532742;1088;102028;-67
2021/07/11 22:26:33;;;;;;;;;;;;;;;19.19;68.88;99455.83;532760;1087;101995;-67
2021/07/11 22:36:38;;;;;;;;;;;;;;;19.05;70.01;99459.92;532184;1088;102944;-66
2021/07/11 22:46:43;;;;;;;;;;;;;;;18.93;70.02;99483.25;532697;1089;102654;-67
2021/07/11 22:56:49;;;;;;;;;;;;;;;18.96;69.74;99484.77;532601;1089;102644;-65
2021/07/11 23:06:54;;;;;;;;;;;;;;;19.02;69.53;99497.47;532567;1088;169631;-68
2021/07/11 23:16:59;;;;;;;;;;;;;;;18.89;70.39;99490.70;532793;1088;102237;-68
2021/07/11 23:27:04;;;;;;;;;;;;;;;18.59;71.68;99490.15;532219;1090;102832;-69
2021/07/11 23:37:09;;;;;;;;;;;;;;;18.34;72.32;99492.55;532848;1089;102160;-69
2021/07/11 23:47:14;;;;;;;;;;;;;;;18.21;72.98;99497.41;523858;1089;10001470;-68
2021/07/11 23:57:19;;;;;;;;;;;;;;;18.22;73.38;99515.02;523237;1089;10001426;-68
